Elizabeth, Illinois
Current Conditions -  °F | °C
As of 11:15 AM on Sunday 23 Nov 2014 (Local Time) from KSFY Reporting Station
Light Rain Light Rain  
Wind Chill: 47°   Ceiling: 700
Heat Index: 49°   Visibility: 1.7mi
Dew Point: 47°   Wind: 6mph
Humidity: 93%   Direction: 150°SSE
Pressure: 29.57"   Gusts: NA
Location:  42.32°N, 90.22°W
Report Text: KSFY 231715Z AUTO 15005KT 1 3/4SM -RA OVC007 10/09 A2957 RMK AO2 P0012 T00960085
Loading
Personal Weather Stations






























Interactive Weather Map New forecast layout! Learn more

10-Day Weather Forecast

Advertisements
Track Severe Weather on mobile